createdAt,value
2018-10-09T00:02:06.962Z,10.25
2018-10-09T00:04:33.880Z,10.38
2018-10-09T00:07:00.795Z,10.44
2018-10-09T00:09:27.745Z,10.44
2018-10-09T00:11:55.267Z,10.38
2018-10-09T00:14:22.552Z,10.44
2018-10-09T00:16:49.492Z,10.25
2018-10-09T00:19:16.456Z,10.56
2018-10-09T00:21:43.399Z,10.31
2018-10-09T00:24:12.972Z,10.31
2018-10-09T00:26:39.925Z,10.38
2018-10-09T00:29:08.361Z,10.56
2018-10-09T00:31:35.367Z,10.69
2018-10-09T00:34:02.339Z,10.50
2018-10-09T00:36:29.333Z,10.63
2018-10-09T00:38:56.307Z,10.38
2018-10-09T00:41:23.265Z,10.31
2018-10-09T00:43:50.241Z,10.38
2018-10-09T00:46:17.197Z,10.63
2018-10-09T00:48:44.129Z,10.25
2018-10-09T00:51:11.140Z,10.13
2018-10-09T00:53:38.242Z,10.13
2018-10-09T00:56:05.281Z,10.19
2018-10-09T00:58:32.188Z,10.06
2018-10-09T01:00:59.162Z,10.31
2018-10-09T01:03:38.866Z,10.06
2018-10-09T01:06:06.002Z,10.06
2018-10-09T01:08:35.381Z,10.25
2018-10-09T01:11:02.357Z,10.13
2018-10-09T01:13:29.262Z,10.13
2018-10-09T01:15:56.297Z,10.06
2018-10-09T01:18:23.231Z,10.06
2018-10-09T01:20:50.156Z,10.13
2018-10-09T01:23:17.100Z,10.06
2018-10-09T01:25:44.017Z,10.06
2018-10-09T01:28:10.916Z,9.88
2018-10-09T01:30:37.912Z,10.13
2018-10-09T01:33:04.987Z,9.94
2018-10-09T01:35:32.096Z,9.81
2018-10-09T01:37:59.119Z,9.88
2018-10-09T01:40:26.130Z,9.69
2018-10-09T01:42:53.076Z,9.81
2018-10-09T01:45:20.049Z,9.69
2018-10-09T01:47:46.968Z,9.81
2018-10-09T01:50:13.968Z,9.63
2018-10-09T01:52:40.916Z,9.75
2018-10-09T01:55:08.016Z,9.75
2018-10-09T01:57:34.938Z,9.75
2018-10-09T02:00:01.918Z,9.69
2018-10-09T02:02:28.937Z,9.63
2018-10-09T02:04:55.863Z,9.75
2018-10-09T02:07:22.802Z,9.63
2018-10-09T02:09:50.635Z,9.63
2018-10-09T02:12:17.575Z,9.63
2018-10-09T02:14:44.505Z,9.56
2018-10-09T02:17:11.502Z,9.56
2018-10-09T02:19:38.414Z,9.38
2018-10-09T02:22:06.040Z,9.63
2018-10-09T02:24:33.072Z,9.75
2018-10-09T02:27:00.154Z,9.69
2018-10-09T02:29:27.063Z,9.56
2018-10-09T02:31:53.992Z,9.69
2018-10-09T02:34:20.944Z,9.56
2018-10-09T02:36:47.910Z,9.38
2018-10-09T02:39:14.794Z,9.38
2018-10-09T02:41:41.679Z,9.44
2018-10-09T02:44:09.222Z,9.63
2018-10-09T02:46:36.103Z,9.56
2018-10-09T02:49:03.024Z,9.44
2018-10-09T02:51:29.936Z,9.50
2018-10-09T02:53:56.873Z,9.31
2018-10-09T02:56:23.789Z,9.38
2018-10-09T02:58:51.007Z,9.38
2018-10-09T03:01:17.932Z,9.31
2018-10-09T03:03:44.882Z,9.50
2018-10-09T03:06:11.811Z,9.50
2018-10-09T03:08:38.795Z,9.31
2018-10-09T03:11:05.919Z,9.25
2018-10-09T03:13:32.807Z,9.25
2018-10-09T03:15:59.757Z,9.31
2018-10-09T03:18:26.679Z,9.25
2018-10-09T03:20:53.640Z,9.31
2018-10-09T03:23:20.577Z,9.38
2018-10-09T03:25:48.100Z,9.25
2018-10-09T03:28:15.066Z,9.19
2018-10-09T03:30:41.968Z,9.44
2018-10-09T03:33:08.878Z,9.31
2018-10-09T03:35:35.812Z,9.25
2018-10-09T03:38:02.895Z,9.25
2018-10-09T03:40:29.810Z,9.38
2018-10-09T03:42:56.700Z,9.25
2018-10-09T03:45:23.676Z,9.25
2018-10-09T03:47:50.651Z,9.13
2018-10-09T03:50:17.595Z,9.19
2018-10-09T03:52:44.566Z,9.25
2018-10-09T03:55:11.525Z,9.19
2018-10-09T03:57:38.476Z,9.25
2018-10-09T04:00:05.457Z,9.13
2018-10-09T04:02:32.421Z,9.19
2018-10-09T04:04:59.329Z,9.25
2018-10-09T04:07:26.371Z,9.19
2018-10-09T04:09:53.274Z,9.25
2018-10-09T04:12:20.205Z,9.25
2018-10-09T04:14:47.164Z,9.19
2018-10-09T04:17:14.182Z,9.19
2018-10-09T04:19:41.092Z,9.25
2018-10-09T04:22:08.359Z,9.31
2018-10-09T04:24:35.291Z,9.31
2018-10-09T04:27:02.310Z,9.38
2018-10-09T04:29:29.425Z,9.25
2018-10-09T04:31:56.280Z,9.13
2018-10-09T04:34:23.198Z,9.13
2018-10-09T04:36:50.123Z,9.38
2018-10-09T04:39:17.090Z,9.19
2018-10-09T04:41:43.978Z,9.25
2018-10-09T04:44:11.111Z,9.63
2018-10-09T04:46:38.019Z,9.44
2018-10-09T04:49:05.027Z,9.31
2018-10-09T04:51:32.159Z,9.69
2018-10-09T04:53:59.045Z,9.31
2018-10-09T04:56:26.008Z,9.44
2018-10-09T04:58:53.005Z,9.44
2018-10-09T05:01:20.554Z,9.25
2018-10-09T05:03:48.078Z,9.25
2018-10-09T05:06:15.020Z,9.06
2018-10-09T05:08:41.951Z,9.19
2018-10-09T05:11:08.884Z,9.31
2018-10-09T05:13:35.830Z,9.50
2018-10-09T05:16:02.796Z,9.31
2018-10-09T05:18:31.063Z,9.38
2018-10-09T05:20:58.472Z,9.50
2018-10-09T05:23:25.415Z,9.50
2018-10-09T05:25:52.454Z,9.31
2018-10-09T05:28:21.538Z,9.44
2018-10-09T05:30:48.511Z,9.31
2018-10-09T05:33:16.597Z,9.44
2018-10-09T05:35:43.515Z,9.31
2018-10-09T05:38:10.602Z,9.13
2018-10-09T05:40:37.603Z,9.19
2018-10-09T05:43:04.611Z,9.50
2018-10-09T05:45:36.157Z,9.56
2018-10-09T05:48:03.206Z,9.38
2018-10-09T05:50:30.163Z,9.31
2018-10-09T05:57:55.356Z,9.25
2018-10-09T06:00:22.270Z,9.50
2018-10-09T06:02:49.320Z,9.50
2018-10-09T06:05:16.265Z,9.63
2018-10-09T06:07:43.222Z,9.50
2018-10-09T06:10:10.254Z,9.44
2018-10-09T06:12:37.204Z,9.56
2018-10-09T06:15:04.597Z,9.81
2018-10-09T06:17:31.553Z,9.44
2018-10-09T06:19:58.481Z,9.44
2018-10-09T06:22:25.431Z,9.56
2018-10-09T06:24:52.374Z,9.81
2018-10-09T06:27:19.696Z,9.63
2018-10-09T06:29:46.651Z,9.88
2018-10-09T06:32:13.600Z,10.06
2018-10-09T06:34:40.515Z,9.94
2018-10-09T06:37:07.739Z,9.88
2018-10-09T06:39:34.704Z,9.81
2018-10-09T06:42:01.667Z,9.94
2018-10-09T06:44:28.612Z,9.94
2018-10-09T06:46:55.572Z,10.00
2018-10-09T06:49:22.604Z,10.25
2018-10-09T06:51:49.554Z,10.00
2018-10-09T06:54:16.513Z,10.25
2018-10-09T06:56:43.514Z,10.19
2018-10-09T06:59:10.467Z,10.44
2018-10-09T07:01:38.491Z,10.38
2018-10-09T07:04:06.673Z,10.44
2018-10-09T07:06:33.677Z,10.31
2018-10-09T07:09:00.635Z,10.56
2018-10-09T07:11:27.654Z,10.69
2018-10-09T07:13:54.571Z,10.81
2018-10-09T07:16:22.223Z,10.56
2018-10-09T07:18:50.191Z,10.50
2018-10-09T07:21:17.169Z,10.75
2018-10-09T07:23:44.172Z,10.63
2018-10-09T07:26:11.224Z,10.81
2018-10-09T07:28:38.288Z,10.75
2018-10-09T07:31:05.240Z,10.81
2018-10-09T07:33:32.313Z,11.12
2018-10-09T07:36:01.621Z,10.94
2018-10-09T07:38:28.675Z,11.06
2018-10-09T07:40:55.626Z,11.00
2018-10-09T07:43:22.623Z,11.06
2018-10-09T07:45:49.601Z,11.19
2018-10-09T07:48:16.662Z,11.25
2018-10-09T07:50:43.751Z,11.38
2018-10-09T07:53:10.707Z,11.44
2018-10-09T07:55:37.674Z,11.56
2018-10-09T07:58:04.621Z,11.63
2018-10-09T08:00:31.671Z,11.69
2018-10-09T08:02:58.579Z,11.63
2018-10-09T08:05:26.457Z,11.75
2018-10-09T08:07:53.412Z,11.81
2018-10-09T08:10:20.383Z,11.81
2018-10-09T08:12:47.291Z,11.88
2018-10-09T08:15:14.220Z,11.94
2018-10-09T08:17:41.236Z,11.88
2018-10-09T08:20:08.187Z,11.94
2018-10-09T08:22:35.157Z,12.06
2018-10-09T08:25:02.118Z,12.13
2018-10-09T08:27:29.090Z,12.00
2018-10-09T08:29:58.593Z,12.31
2018-10-09T08:32:25.546Z,12.31
2018-10-09T08:34:52.443Z,12.31
2018-10-09T08:37:20.389Z,12.63
2018-10-09T08:39:47.285Z,12.50
2018-10-09T08:42:14.176Z,12.75
2018-10-09T08:44:41.151Z,12.69
2018-10-09T08:47:08.077Z,12.81
2018-10-09T08:49:34.992Z,12.88
2018-10-09T08:52:02.132Z,12.94
2018-10-09T08:54:29.011Z,12.94
2018-10-09T08:56:55.961Z,13.13
2018-10-09T08:59:22.982Z,13.06
2018-10-09T09:01:49.913Z,13.44
2018-10-09T09:04:16.840Z,13.38
2018-10-09T09:06:43.809Z,13.25
2018-10-09T09:09:11.520Z,13.25
2018-10-09T09:11:38.646Z,13.19
2018-10-09T09:14:06.460Z,13.31
2018-10-09T09:16:33.428Z,13.38
2018-10-09T09:19:03.577Z,13.31
2018-10-09T09:21:30.988Z,13.38
2018-10-09T09:23:57.955Z,13.38
2018-10-09T09:26:24.943Z,13.38
2018-10-09T09:28:51.963Z,13.44
2018-10-09T09:31:18.939Z,13.44
2018-10-09T09:33:45.919Z,13.56
2018-10-09T09:36:13.570Z,13.62
2018-10-09T09:38:40.515Z,13.56
2018-10-09T09:41:07.693Z,13.56
2018-10-09T09:43:34.693Z,13.56
2018-10-09T09:46:01.816Z,13.62
2018-10-09T09:48:28.715Z,13.62
2018-10-09T09:50:55.759Z,13.75
2018-10-09T09:53:22.759Z,13.75
2018-10-09T09:55:49.693Z,13.69
2018-10-09T09:58:16.693Z,13.75
2018-10-09T10:00:49.307Z,13.81
2018-10-09T10:03:16.839Z,13.94
2018-10-09T10:05:43.807Z,13.94
2018-10-09T10:08:11.727Z,13.94
2018-10-09T10:10:38.736Z,14.00
2018-10-09T10:13:05.813Z,14.13
2018-10-09T10:15:32.830Z,14.19
2018-10-09T10:17:59.753Z,14.19
2018-10-09T10:20:26.733Z,14.38
2018-10-09T10:22:53.727Z,14.63
2018-10-09T10:25:20.659Z,14.50
2018-10-09T10:27:47.646Z,14.44
2018-10-09T10:30:14.621Z,14.56
2018-10-09T10:32:41.570Z,14.56
2018-10-09T10:35:09.024Z,14.63
2018-10-09T10:37:35.975Z,14.69
2018-10-09T10:40:02.980Z,14.75
2018-10-09T10:42:29.927Z,14.87
2018-10-09T10:44:57.430Z,14.94
2018-10-09T10:47:24.420Z,15.06
2018-10-09T10:49:51.356Z,15.13
2018-10-09T10:52:18.375Z,15.19
2018-10-09T10:54:45.312Z,15.25
2018-10-09T10:57:12.328Z,15.38
2018-10-09T10:59:39.293Z,15.44
2018-10-09T11:02:06.777Z,15.50
2018-10-09T11:04:33.789Z,15.69
2018-10-09T11:07:00.795Z,15.69
2018-10-09T11:09:27.811Z,15.69
2018-10-09T11:11:54.831Z,15.75
2018-10-09T11:14:21.791Z,15.75
2018-10-09T11:16:48.860Z,16.00
2018-10-09T11:19:15.833Z,15.94
2018-10-09T11:21:42.949Z,16.06
2018-10-09T11:24:09.762Z,16.00
2018-10-09T11:26:36.765Z,16.00
2018-10-09T11:29:03.703Z,15.94
2018-10-09T11:31:30.672Z,16.12
2018-10-09T11:33:58.624Z,16.06
2018-10-09T11:36:25.654Z,16.12
2018-10-09T11:38:52.558Z,16.12
2018-10-09T11:41:19.573Z,16.19
2018-10-09T11:43:46.518Z,16.19
2018-10-09T11:46:13.478Z,16.19
2018-10-09T11:48:40.423Z,16.25
2018-10-09T11:51:07.445Z,16.25
2018-10-09T11:53:34.414Z,16.31
2018-10-09T11:56:01.383Z,16.31
2018-10-09T11:58:28.332Z,16.37
2018-10-09T12:00:57.578Z,16.37
2018-10-09T12:03:24.578Z,16.44
2018-10-09T12:05:51.674Z,16.50
2018-10-09T12:08:18.489Z,16.56
2018-10-09T12:10:45.489Z,16.56
2018-10-09T12:13:12.459Z,16.50
2018-10-09T12:15:39.428Z,16.56
2018-10-09T12:18:06.601Z,16.56
2018-10-09T12:20:33.511Z,16.87
2018-10-09T12:23:00.463Z,16.69
2018-10-09T12:25:27.433Z,16.69
2018-10-09T12:27:54.380Z,16.62
2018-10-09T12:30:21.318Z,16.62
2018-10-09T12:32:48.296Z,16.81
2018-10-09T12:35:15.758Z,16.75
2018-10-09T12:37:42.896Z,16.75
2018-10-09T12:40:09.845Z,16.75
2018-10-09T12:42:36.824Z,16.69
2018-10-09T12:45:03.800Z,16.75
2018-10-09T12:47:30.715Z,17.12
2018-10-09T12:49:58.266Z,16.94
2018-10-09T12:52:25.214Z,16.87
2018-10-09T12:54:52.151Z,16.87
2018-10-09T12:57:19.091Z,16.94
2018-10-09T12:59:46.047Z,16.94
2018-10-09T13:02:13.175Z,16.94
2018-10-09T13:04:41.557Z,16.94
2018-10-09T13:07:08.508Z,16.94
2018-10-09T13:09:35.510Z,16.94
2018-10-09T13:12:02.473Z,16.94
2018-10-09T13:14:29.424Z,16.94
2018-10-09T13:16:56.507Z,17.00
2018-10-09T13:19:23.456Z,16.94
2018-10-09T13:21:50.949Z,17.00
2018-10-09T13:24:17.434Z,17.12
2018-10-09T13:26:44.392Z,17.06
2018-10-09T13:29:11.390Z,17.00
2018-10-09T13:31:38.286Z,16.94
2018-10-09T13:34:05.468Z,16.94
2018-10-09T13:36:32.422Z,16.94
2018-10-09T13:38:59.860Z,16.94
2018-10-09T13:41:26.838Z,16.94
2018-10-09T13:43:53.841Z,17.00
2018-10-09T13:46:20.776Z,17.06
2018-10-09T13:48:47.792Z,17.06
2018-10-09T13:51:15.059Z,17.06
2018-10-09T13:53:42.034Z,17.06
2018-10-09T13:56:09.037Z,17.12
2018-10-09T13:58:36.021Z,17.06
2018-10-09T14:01:02.989Z,17.12
2018-10-09T14:03:30.060Z,17.12
2018-10-09T14:05:57.044Z,17.19
2018-10-09T14:08:24.106Z,17.25
2018-10-09T14:10:51.055Z,17.25
2018-10-09T14:13:18.240Z,17.44
2018-10-09T14:15:45.248Z,17.31
2018-10-09T14:18:12.240Z,17.25
2018-10-09T14:20:39.328Z,17.25
2018-10-09T14:23:06.464Z,17.31
2018-10-09T14:25:33.370Z,17.31
2018-10-09T14:28:00.327Z,17.44
2018-10-09T14:30:27.370Z,17.25
2018-10-09T14:32:54.353Z,17.19
2018-10-09T14:35:21.328Z,17.12
2018-10-09T14:37:48.446Z,17.12
2018-10-09T14:40:15.456Z,17.06
2018-10-09T14:42:43.373Z,17.06
2018-10-09T14:45:10.301Z,17.31
2018-10-09T14:47:37.245Z,17.19
2018-10-09T14:50:04.273Z,17.12
2018-10-09T14:52:31.205Z,17.06
2018-10-09T14:54:58.273Z,17.06
2018-10-09T14:57:25.329Z,17.06
2018-10-09T14:59:52.397Z,17.06
2018-10-09T15:02:19.386Z,17.06
2018-10-09T15:04:46.340Z,17.00
2018-10-09T15:07:13.302Z,17.00
2018-10-09T15:09:40.292Z,17.00
2018-10-09T15:12:07.328Z,16.94
2018-10-09T15:14:34.270Z,16.94
2018-10-09T15:17:01.312Z,16.94
2018-10-09T15:19:28.235Z,16.94
2018-10-09T15:21:55.190Z,16.87
2018-10-09T15:24:22.192Z,16.94
2018-10-09T15:26:49.372Z,17.00
2018-10-09T15:29:16.980Z,16.94
2018-10-09T15:31:44.844Z,16.94
2018-10-09T15:34:11.830Z,16.94
2018-10-09T15:36:38.835Z,16.87
2018-10-09T15:39:08.344Z,16.87
2018-10-09T15:41:35.344Z,16.75
2018-10-09T15:44:02.268Z,16.75
2018-10-09T15:46:29.192Z,16.69
2018-10-09T15:48:56.115Z,16.69
2018-10-09T15:51:23.057Z,16.62
2018-10-09T15:53:50.241Z,16.62
2018-10-09T15:56:17.271Z,16.62
2018-10-09T15:58:44.272Z,16.56
2018-10-09T16:01:11.349Z,16.62
2018-10-09T16:03:38.314Z,16.56
2018-10-09T16:06:05.271Z,16.44
2018-10-09T16:08:32.179Z,16.44
2018-10-09T16:10:59.115Z,16.31
2018-10-09T16:13:27.059Z,16.31
2018-10-09T16:15:54.035Z,16.25
2018-10-09T16:18:20.963Z,16.25
2018-10-09T16:20:48.015Z,16.25
2018-10-09T16:23:14.959Z,16.12
2018-10-09T16:25:41.927Z,16.00
2018-10-09T16:28:08.963Z,15.94
2018-10-09T16:30:36.499Z,15.94
2018-10-09T16:33:03.456Z,15.88
2018-10-09T16:35:30.405Z,15.81
2018-10-09T16:37:57.399Z,15.75
2018-10-09T16:40:24.371Z,15.56
2018-10-09T16:42:51.403Z,15.63
2018-10-09T16:45:18.408Z,15.56
2018-10-09T16:47:45.418Z,15.56
2018-10-09T16:50:12.387Z,15.44
2018-10-09T16:52:39.377Z,15.19
2018-10-09T16:55:06.367Z,15.13
2018-10-09T16:57:33.313Z,15.00
2018-10-09T17:00:00.224Z,14.94
2018-10-09T17:02:27.267Z,14.87
2018-10-09T17:04:54.203Z,14.87
2018-10-09T17:07:21.161Z,14.75
2018-10-09T17:09:48.127Z,14.75
2018-10-09T17:12:15.080Z,14.69
2018-10-09T17:14:42.035Z,14.63
2018-10-09T17:17:09.533Z,14.63
2018-10-09T17:19:36.487Z,14.56
2018-10-09T17:22:03.389Z,14.50
2018-10-09T17:24:30.290Z,14.50
2018-10-09T17:26:57.290Z,14.44
2018-10-09T17:29:24.146Z,14.44
2018-10-09T17:31:51.052Z,14.38
2018-10-09T17:34:18.017Z,14.38
2018-10-09T17:36:44.953Z,14.31
2018-10-09T17:39:12.324Z,14.31
2018-10-09T17:41:39.300Z,14.25
2018-10-09T17:44:06.379Z,14.19
2018-10-09T17:46:33.476Z,14.19
2018-10-09T17:49:00.248Z,14.13
2018-10-09T17:51:27.173Z,14.13
2018-10-09T17:53:54.135Z,14.06
2018-10-09T17:56:21.419Z,14.06
2018-10-09T17:58:48.329Z,14.06
2018-10-09T18:01:15.281Z,14.00
2018-10-09T18:03:42.262Z,13.94
2018-10-09T18:06:09.905Z,13.94
2018-10-09T18:08:36.914Z,13.88
2018-10-09T18:11:03.879Z,13.94
2018-10-09T18:13:30.808Z,13.88
2018-10-09T18:15:57.767Z,13.81
2018-10-09T18:18:24.672Z,13.81
2018-10-09T18:20:51.606Z,13.75
2018-10-09T18:23:18.573Z,13.75
2018-10-09T18:25:45.542Z,13.75
2018-10-09T18:28:12.456Z,13.75
2018-10-09T18:30:39.391Z,13.75
2018-10-09T18:33:06.647Z,13.75
2018-10-09T18:35:33.406Z,13.69
2018-10-09T18:38:00.285Z,13.69
2018-10-09T18:40:27.242Z,13.69
2018-10-09T18:42:54.162Z,13.69
2018-10-09T18:45:21.113Z,13.62
2018-10-09T18:47:48.151Z,13.62
2018-10-09T18:50:15.068Z,13.62
2018-10-09T18:52:42.506Z,13.69
2018-10-09T18:55:11.227Z,13.69
2018-10-09T18:57:38.165Z,13.69
2018-10-09T19:00:05.929Z,13.62
2018-10-09T19:02:32.914Z,13.69
2018-10-09T19:04:59.876Z,13.69
2018-10-09T19:07:26.827Z,13.62
2018-10-09T19:09:53.785Z,13.62
2018-10-09T19:12:20.732Z,13.62
2018-10-09T19:14:47.705Z,13.62
2018-10-09T19:17:14.645Z,13.62
2018-10-09T19:19:41.599Z,13.62
2018-10-09T19:22:08.673Z,13.62
2018-10-09T19:24:35.631Z,13.62
2018-10-09T19:27:02.633Z,13.62
2018-10-09T19:29:29.636Z,13.56
2018-10-09T19:31:56.628Z,13.56
2018-10-09T19:34:23.607Z,13.56
2018-10-09T19:36:50.541Z,13.56
2018-10-09T19:39:17.963Z,13.56
2018-10-09T19:41:44.911Z,13.56
2018-10-09T19:44:11.884Z,13.56
2018-10-09T19:46:39.190Z,13.62
2018-10-09T19:52:07.440Z,13.56
2018-10-09T19:54:34.399Z,13.62
2018-10-09T19:57:01.340Z,13.62
2018-10-09T19:59:28.409Z,13.62
2018-10-09T20:01:55.678Z,13.56
2018-10-09T20:04:22.768Z,13.62
2018-10-09T20:06:49.813Z,13.62
2018-10-09T20:09:16.782Z,13.50
2018-10-09T20:11:43.792Z,13.62
2018-10-09T20:14:13.026Z,13.56
2018-10-09T20:16:40.078Z,13.56
2018-10-09T20:19:07.874Z,13.56
2018-10-09T20:21:34.910Z,13.56
2018-10-09T20:24:01.963Z,13.56
2018-10-09T20:26:28.965Z,13.56
2018-10-09T20:28:55.875Z,13.56
2018-10-09T20:31:25.686Z,13.56
2018-10-09T20:33:56.074Z,13.56
2018-10-09T20:36:23.024Z,13.56
2018-10-09T20:38:50.090Z,13.56
2018-10-09T20:41:17.243Z,13.56
2018-10-09T20:43:44.194Z,13.56
2018-10-09T20:46:11.661Z,13.50
2018-10-09T20:48:38.670Z,13.50
2018-10-09T20:51:05.664Z,13.50
2018-10-09T20:53:32.585Z,13.44
2018-10-09T20:55:59.870Z,13.44
2018-10-09T20:58:27.176Z,13.44
2018-10-09T21:00:55.295Z,13.44
2018-10-09T21:03:22.269Z,13.38
2018-10-09T21:05:49.656Z,13.38
2018-10-09T21:08:16.537Z,13.31
2018-10-09T21:10:44.263Z,13.38
2018-10-09T21:13:11.212Z,13.38
2018-10-09T21:15:39.062Z,13.31
2018-10-09T21:18:06.261Z,13.31
2018-10-09T21:20:33.207Z,13.25
2018-10-09T21:23:00.167Z,13.25
2018-10-09T21:25:27.135Z,13.19
2018-10-09T21:27:54.107Z,13.25
2018-10-09T21:30:21.104Z,13.19
2018-10-09T21:32:48.027Z,13.25
2018-10-09T21:35:15.230Z,13.19
2018-10-09T21:37:42.434Z,13.19
2018-10-09T21:40:09.362Z,13.25
2018-10-09T21:42:36.272Z,13.19
2018-10-09T21:45:03.346Z,13.19
2018-10-09T21:47:30.288Z,13.13
2018-10-09T21:49:57.229Z,13.19
2018-10-09T21:52:24.125Z,13.13
2018-10-09T21:54:51.340Z,13.13
2018-10-09T21:57:18.339Z,13.13
2018-10-09T21:59:45.297Z,13.13
2018-10-09T22:02:12.252Z,13.13
2018-10-09T22:04:39.188Z,13.13
2018-10-09T22:07:06.130Z,13.06
2018-10-09T22:14:24.696Z,13.06
2018-10-09T22:16:51.655Z,13.06
2018-10-09T22:19:18.548Z,13.06
2018-10-09T22:21:45.501Z,13.00
2018-10-09T22:24:12.424Z,13.00
2018-10-09T22:26:39.354Z,13.00
2018-10-09T22:29:06.295Z,12.94
2018-10-09T22:31:33.209Z,12.94
2018-10-09T22:34:00.201Z,12.94
2018-10-09T22:36:27.091Z,12.88
2018-10-09T22:38:54.047Z,12.94
2018-10-09T22:41:20.931Z,12.94
2018-10-09T22:43:47.879Z,12.88
2018-10-09T22:46:14.771Z,12.88
2018-10-09T22:48:41.668Z,12.81
2018-10-09T22:51:08.572Z,12.81
2018-10-09T22:53:35.535Z,12.81
2018-10-09T22:56:02.444Z,12.75
2018-10-09T22:58:29.352Z,12.81
2018-10-09T23:00:56.286Z,12.75
2018-10-09T23:03:23.164Z,12.75
2018-10-09T23:05:50.050Z,12.69
2018-10-09T23:08:16.914Z,12.69
2018-10-09T23:10:43.830Z,12.69
2018-10-09T23:13:10.747Z,12.63
2018-10-09T23:15:37.633Z,12.63
2018-10-09T23:18:04.668Z,12.69
2018-10-09T23:20:31.763Z,12.63
2018-10-09T23:22:58.690Z,12.63
2018-10-09T23:25:25.623Z,12.56
2018-10-09T23:27:52.538Z,12.56
2018-10-09T23:30:19.431Z,12.56
2018-10-09T23:32:46.337Z,12.50
2018-10-09T23:35:13.221Z,12.50
2018-10-09T23:37:40.089Z,12.44
2018-10-09T23:40:07.038Z,12.44
2018-10-09T23:42:33.999Z,12.44
2018-10-09T23:45:00.849Z,12.44
2018-10-09T23:47:27.757Z,12.37
2018-10-09T23:49:54.631Z,12.44
2018-10-09T23:52:21.542Z,12.37
2018-10-09T23:54:48.472Z,12.37
2018-10-09T23:57:15.428Z,12.37
2018-10-09T23:59:42.334Z,12.31
